DRZA/AJY METAR and TAF weather

Enter ICAO airport designator
Station Type Date Time Source
DRZA METAR 2019/12/12 12:00 UTC NOAA

DRZA 121200Z 10019KT 8000 NSC 28/M00 Q1017


Station Type Date Time Source
DRZA Decoded METAR 2019/12/12 12:00 UTC NOAA

Agadez, Niger (DRZA) 16-58N 007-59E 502M
Dec 12, 2019 - 07:00 AM EST / 2019.12.12 1200 UTC
Wind: from the E (100 degrees) at 22 MPH (19 KT):0
Visibility: 4 mile(s):0
Temperature: 82 F (28 C)
Dew Point: 32 F (0 C)
Relative Humidity: 16%
Pressure (altimeter): 30.03 in. Hg (1017 hPa)
ob: DRZA 121200Z 10019KT 8000 NSC 28/M00 Q1017
cycle: 12

Station Type Date Time Source
DRZA TAF 2019/12/12 12:21 UTC NOAA

TAF DRZA 121100Z 1212/1312 10015KT 8000 NSC
TEMPO 1212/1217 12025KT 2500 BLDU

Example: see airport list